Time;durP1;ratioP1;P1;durP2;ratioP2;P2;SDS_P1;SDS_P2;PMS_P1;PMS_P2;Temp;Humidity;BMP_temperature;BMP_pressure;BME280_temperature;BME280_humidity;BME280_pressure;Samples;Min_cycle;Max_cycle;Signal;HPM_P1;HPM_P2
2023/06/26 00:02:16;;;;;;;4.40;2.40;;;24.80;39.80;;;;;;2515561;55;21503;-68
2023/06/26 00:04:43;;;;;;;4.65;2.75;;;24.80;40.00;;;;;;2514784;55;20968;-70
2023/06/26 00:07:09;;;;;;;4.30;2.50;;;24.70;40.40;;;;;;2282416;55;21440;-71
2023/06/26 00:09:36;;;;;;;4.05;2.45;;;24.70;40.40;;;;;;2281584;55;20951;-67
2023/06/26 00:12:02;;;;;;;4.10;2.60;;;24.60;40.50;;;;;;2281379;55;21031;-68
2023/06/26 00:14:32;;;;;;;4.30;2.47;;;24.60;40.50;;;;;;2282757;55;21456;-68
2023/06/26 00:16:59;;;;;;;4.95;2.62;;;24.60;40.60;;;;;;2513211;55;21766;-69
2023/06/26 00:19:25;;;;;;;4.62;2.75;;;24.60;40.70;;;;;;2281961;55;21028;-69
2023/06/26 00:21:52;;;;;;;4.07;2.47;;;24.50;40.60;;;;;;2514433;55;21556;-68
2023/06/26 00:24:18;;;;;;;3.95;2.47;;;24.50;40.70;;;;;;2282158;55;21056;-68
2023/06/26 00:26:46;;;;;;;3.78;2.15;;;24.40;40.70;;;;;;2514121;55;20938;-69
2023/06/26 00:29:15;;;;;;;3.97;2.12;;;24.40;40.80;;;;;;2282229;55;20978;-71
2023/06/26 00:31:45;;;;;;;4.12;2.53;;;24.40;40.90;;;;;;2256442;56;21494;-69
2023/06/26 00:34:15;;;;;;;3.55;2.08;;;24.40;41.00;;;;;;2515551;54;20959;-69
2023/06/26 00:36:44;;;;;;;3.85;2.20;;;24.30;40.90;;;;;;2298528;55;21034;-68
2023/06/26 00:39:10;;;;;;;3.55;2.20;;;24.30;40.90;;;;;;2248380;56;20957;-68
2023/06/26 00:41:37;;;;;;;4.07;2.28;;;24.30;41.10;;;;;;2266753;55;20918;-68
2023/06/26 00:44:05;;;;;;;4.28;2.42;;;24.20;41.10;;;;;;2291244;55;21753;-70
2023/06/26 00:46:31;;;;;;;4.37;2.58;;;24.20;41.20;;;;;;2539856;54;20956;-69
2023/06/26 00:49:01;;;;;;;4.70;2.80;;;24.20;41.50;;;;;;2521408;54;20935;-70
2023/06/26 00:51:28;;;;;;;3.65;2.12;;;24.10;41.70;;;;;;2283087;56;20961;-71
2023/06/26 00:53:54;;;;;;;3.95;2.50;;;24.10;41.70;;;;;;2509872;55;21023;-71
2023/06/26 00:56:21;;;;;;;4.12;2.47;;;24.10;41.90;;;;;;2261660;56;20990;-69
2023/06/26 00:58:48;;;;;;;4.10;2.33;;;24.00;41.80;;;;;;2281709;56;20954;-68
2023/06/26 01:01:17;;;;;;;4.55;2.78;;;24.00;41.80;;;;;;2514839;55;20958;-69
2023/06/26 01:03:46;;;;;;;3.97;2.33;;;24.00;41.90;;;;;;2277825;56;20937;-67
2023/06/26 01:06:14;;;;;;;4.28;2.40;;;23.90;42.00;;;;;;2256015;55;21011;-71
2023/06/26 01:08:41;;;;;;;4.20;2.42;;;23.90;42.00;;;;;;2539145;54;21404;-69
2023/06/26 01:11:13;;;;;;;4.15;2.55;;;23.90;42.10;;;;;;2515579;55;21022;-71
2023/06/26 01:13:39;;;;;;;3.83;2.30;;;23.80;42.10;;;;;;2552436;54;21405;-69
2023/06/26 01:16:09;;;;;;;4.43;2.20;;;23.80;42.10;;;;;;2552787;54;20979;-69
2023/06/26 01:18:36;;;;;;;5.05;3.10;;;23.80;42.40;;;;;;2290570;55;20957;-68
2023/06/26 01:21:08;;;;;;;4.18;2.87;;;23.70;42.50;;;;;;2553858;54;20971;-69
2023/06/26 01:26:37;;;;;;;4.37;2.60;;;23.70;42.70;;;;;;2314009;55;21023;-70
2023/06/26 01:29:05;;;;;;;3.83;2.08;;;23.70;43.60;;;;;;2314318;55;21051;-70
2023/06/26 01:31:32;;;;;;;3.90;2.30;;;23.70;42.80;;;;;;2313610;55;20943;-69
2023/06/26 01:33:59;;;;;;;4.87;2.97;;;23.60;42.90;;;;;;2552444;54;20970;-69
2023/06/26 01:36:26;;;;;;;6.47;3.15;;;23.60;43.10;;;;;;2535718;54;21099;-69
2023/06/26 01:38:53;;;;;;;4.30;2.60;;;23.60;43.30;;;;;;2539292;54;20995;-70
2023/06/26 01:41:19;;;;;;;4.28;2.60;;;23.50;43.20;;;;;;2553823;54;20987;-69
2023/06/26 01:44:18;;;;;;;3.92;2.40;;;23.50;43.20;;;;;;2313134;55;20932;-69
2023/06/26 01:47:49;;;;;;;4.20;2.42;;;23.50;43.40;;;;;;2553206;54;21011;-68
2023/06/26 01:50:22;;;;;;;3.80;2.17;;;23.50;43.40;;;;;;2290465;55;20972;-68
2023/06/26 01:54:13;;;;;;;4.28;2.67;;;23.50;43.20;;;;;;2520741;54;20945;-67
2023/06/26 01:56:40;;;;;;;3.00;1.87;;;23.60;43.80;;;;;;2553179;54;20919;-69
2023/06/26 01:59:06;;;;;;;4.40;2.22;;;23.60;43.40;;;;;;2552874;54;21358;-68
2023/06/26 02:01:33;;;;;;;3.47;2.00;;;23.60;43.40;;;;;;2553848;54;21012;-69
2023/06/26 02:04:00;;;;;;;4.03;2.25;;;23.50;43.40;;;;;;2312616;55;20987;-69
2023/06/26 02:06:26;;;;;;;3.90;2.35;;;23.50;43.70;;;;;;2553175;54;20975;-70
2023/06/26 02:08:56;;;;;;;3.92;2.53;;;23.60;43.80;;;;;;2520184;54;21006;-68
2023/06/26 02:11:23;;;;;;;3.62;2.30;;;23.60;43.80;;;;;;2313782;55;20968;-70
2023/06/26 02:13:49;;;;;;;3.80;2.30;;;23.60;43.80;;;;;;2312632;55;20960;-67
2023/06/26 02:16:17;;;;;;;4.40;2.03;;;23.60;43.80;;;;;;2552736;54;21354;-69
2023/06/26 02:18:43;;;;;;;4.30;2.60;;;23.60;43.90;;;;;;2550717;54;21092;-69
2023/06/26 02:21:10;;;;;;;4.43;2.67;;;23.60;44.00;;;;;;2311985;55;20967;-68
2023/06/26 02:23:37;;;;;;;3.70;2.28;;;23.60;44.10;;;;;;2551610;54;21018;-69
2023/06/26 02:26:04;;;;;;;4.53;2.35;;;23.60;44.00;;;;;;2313075;55;21697;-71
2023/06/26 02:28:33;;;;;;;4.93;2.62;;;23.60;44.00;;;;;;2313038;55;20990;-69
2023/06/26 02:31:00;;;;;;;3.90;2.40;;;23.60;44.20;;;;;;2313028;55;20971;-68
2023/06/26 02:33:27;;;;;;;4.50;2.83;;;23.60;44.10;;;;;;2312351;55;20988;-70
2023/06/26 02:35:53;;;;;;;3.75;2.33;;;23.60;44.20;;;;;;2312773;55;20983;-68
2023/06/26 02:38:19;;;;;;;4.03;2.40;;;23.70;44.20;;;;;;2313478;55;20952;-69
2023/06/26 02:40:46;;;;;;;4.25;2.60;;;23.70;44.20;;;;;;2552816;54;20991;-69
2023/06/26 02:43:13;;;;;;;4.12;2.47;;;23.70;44.20;;;;;;2306707;55;21100;-69
2023/06/26 02:45:41;;;;;;;4.35;2.83;;;23.60;44.20;;;;;;2298050;55;21026;-71
2023/06/26 02:48:08;;;;;;;3.80;2.20;;;23.60;44.20;;;;;;2291084;55;21410;-69
2023/06/26 02:50:35;;;;;;;3.62;2.17;;;23.60;44.30;;;;;;2553869;54;20940;-70
2023/06/26 02:53:01;;;;;;;4.68;2.85;;;23.60;44.30;;;;;;2552728;54;20939;-71
2023/06/26 02:55:28;;;;;;;5.43;2.83;;;23.60;44.30;;;;;;2553110;54;21389;-69
2023/06/26 02:57:54;;;;;;;6.07;3.25;;;23.60;44.50;;;;;;2552046;54;20962;-68
2023/06/26 03:00:21;;;;;;;4.37;2.80;;;23.50;44.50;;;;;;2553877;54;20928;-68
2023/06/26 03:02:47;;;;;;;5.05;2.95;;;23.50;44.50;;;;;;2553181;54;20944;-70
2023/06/26 03:05:13;;;;;;;4.47;2.90;;;23.50;44.70;;;;;;2312885;55;20943;-71
2023/06/26 03:07:43;;;;;;;6.40;2.70;;;23.50;44.80;;;;;;2312229;55;20995;-68
2023/06/26 03:10:09;;;;;;;5.07;2.70;;;23.40;44.70;;;;;;2313462;55;20947;-68
2023/06/26 03:12:35;;;;;;;4.40;2.55;;;23.40;44.70;;;;;;2553226;54;21260;-69
2023/06/26 03:15:02;;;;;;;5.50;2.60;;;23.40;44.80;;;;;;2553104;54;20967;-69
2023/06/26 03:17:29;;;;;;;5.25;3.05;;;23.40;44.80;;;;;;2553649;54;20928;-68
2023/06/26 03:19:56;;;;;;;5.18;3.12;;;23.40;45.00;;;;;;2553692;54;20996;-67
2023/06/26 03:22:22;;;;;;;4.20;2.58;;;23.30;44.90;;;;;;2313913;55;21559;-68
2023/06/26 03:24:49;;;;;;;4.70;2.53;;;23.30;45.00;;;;;;2313277;55;20948;-69
2023/06/26 03:27:15;;;;;;;3.97;2.45;;;23.30;45.00;;;;;;2553638;54;20983;-68
2023/06/26 03:29:44;;;;;;;4.28;2.70;;;23.30;45.00;;;;;;2313044;55;21816;-69
2023/06/26 03:32:11;;;;;;;3.92;2.20;;;23.20;45.00;;;;;;2553701;54;21080;-69
2023/06/26 03:34:37;;;;;;;4.62;2.70;;;23.30;45.10;;;;;;2553057;54;21023;-70
2023/06/26 03:37:04;;;;;;;4.12;2.58;;;23.20;45.10;;;;;;2552561;54;21472;-69
2023/06/26 03:39:30;;;;;;;3.75;2.40;;;23.10;45.70;;;;;;2553936;54;20968;-72
2023/06/26 03:42:00;;;;;;;3.80;2.40;;;23.30;45.30;;;;;;2552825;54;20932;-70
2023/06/26 03:44:27;;;;;;;4.87;3.25;;;23.20;45.20;;;;;;2312776;55;20999;-71
2023/06/26 03:46:54;;;;;;;4.80;3.12;;;23.20;45.20;;;;;;2553094;54;20936;-72
2023/06/26 03:49:20;;;;;;;4.32;2.90;;;23.10;45.20;;;;;;2553309;54;21522;-72
2023/06/26 03:51:46;;;;;;;5.03;2.95;;;23.20;45.30;;;;;;2553122;54;20939;-72
2023/06/26 03:54:12;;;;;;;4.68;2.90;;;23.10;45.30;;;;;;2553000;54;20951;-72
2023/06/26 03:56:42;;;;;;;3.75;2.40;;;23.10;45.30;;;;;;2553880;54;20964;-72
2023/06/26 03:59:10;;;;;;;5.18;2.80;;;23.10;45.40;;;;;;2314244;55;21063;-72
2023/06/26 04:01:37;;;;;;;4.20;2.60;;;23.10;45.40;;;;;;2554007;54;21002;-71
2023/06/26 04:04:05;;;;;;;4.18;2.72;;;23.10;45.40;;;;;;2315569;55;21808;-71
2023/06/26 04:06:33;;;;;;;4.50;2.80;;;23.10;45.40;;;;;;2524768;54;20947;-68
2023/06/26 04:09:00;;;;;;;4.85;2.97;;;23.00;45.40;;;;;;2313761;55;20947;-69
2023/06/26 04:11:27;;;;;;;4.15;2.30;;;23.00;45.50;;;;;;2313810;55;20924;-68
2023/06/26 04:13:53;;;;;;;4.37;2.97;;;23.00;45.50;;;;;;2314092;55;20952;-66
2023/06/26 04:16:20;;;;;;;4.10;2.62;;;23.00;45.60;;;;;;2553341;54;20940;-71
2023/06/26 04:18:47;;;;;;;4.75;3.15;;;23.00;45.70;;;;;;2553526;54;20982;-71
2023/06/26 04:21:14;;;;;;;4.82;3.12;;;23.00;45.70;;;;;;2313615;55;21922;-71
2023/06/26 04:23:40;;;;;;;4.47;2.87;;;23.00;45.90;;;;;;2313608;55;20987;-67
2023/06/26 04:26:07;;;;;;;3.90;2.65;;;22.90;45.90;;;;;;2552845;54;21429;-71
2023/06/26 04:28:35;;;;;;;4.00;2.55;;;22.90;46.00;;;;;;2553664;54;21045;-69
2023/06/26 04:31:04;;;;;;;4.62;2.83;;;22.90;46.00;;;;;;2312957;55;21015;-67
2023/06/26 04:33:36;;;;;;;4.70;2.70;;;22.90;46.20;;;;;;2553736;54;20943;-71
2023/06/26 04:36:06;;;;;;;4.37;2.75;;;22.90;46.30;;;;;;2553482;54;21760;-72
2023/06/26 04:38:33;;;;;;;4.32;2.70;;;22.90;46.30;;;;;;2553744;54;20967;-71
2023/06/26 04:41:00;;;;;;;4.47;2.92;;;22.90;46.30;;;;;;2313095;55;21003;-71
2023/06/26 04:43:27;;;;;;;4.00;2.60;;;22.70;46.30;;;;;;2313545;55;21378;-69
2023/06/26 04:45:54;;;;;;;4.70;2.75;;;22.90;46.50;;;;;;2553375;54;21015;-70
2023/06/26 04:48:22;;;;;;;5.07;3.03;;;22.90;46.60;;;;;;2554197;54;20956;-69
2023/06/26 04:50:53;;;;;;;4.87;3.08;;;22.90;46.80;;;;;;2553651;54;21842;-67
2023/06/26 04:53:21;;;;;;;4.37;2.77;;;22.90;46.90;;;;;;2553736;54;21059;-72
2023/06/26 04:55:47;;;;;;;4.12;2.62;;;22.90;46.90;;;;;;2553065;54;20964;-72
2023/06/26 04:58:13;;;;;;;4.40;2.37;;;22.90;47.00;;;;;;2553678;54;21541;-71
2023/06/26 05:00:42;;;;;;;4.07;2.67;;;22.90;47.10;;;;;;2553738;54;20971;-71
2023/06/26 05:03:17;;;;;;;4.65;2.90;;;22.90;47.20;;;;;;2552917;54;21007;-70
2023/06/26 05:05:50;;;;;;;3.90;2.40;;;22.90;47.50;;;;;;2313593;55;21051;-70
2023/06/26 05:08:18;;;;;;;4.30;2.60;;;23.00;47.50;;;;;;2554179;54;20944;-71
2023/06/26 05:10:44;;;;;;;4.82;2.72;;;23.00;47.50;;;;;;2313796;55;20971;-70
2023/06/26 05:13:17;;;;;;;6.75;2.72;;;23.00;47.60;;;;;;2553373;54;21378;-70
2023/06/26 05:15:44;;;;;;;5.05;2.90;;;23.00;47.70;;;;;;2313815;55;20999;-70
2023/06/26 05:18:10;;;;;;;6.22;2.90;;;23.10;47.90;;;;;;2553846;54;20999;-71
2023/06/26 05:20:38;;;;;;;4.45;3.15;;;23.10;48.10;;;;;;2554060;54;20936;-72
2023/06/26 05:23:04;;;;;;;5.37;3.33;;;23.20;48.20;;;;;;2312832;55;21465;-71
2023/06/26 05:25:31;;;;;;;4.40;2.95;;;23.20;48.30;;;;;;2504113;54;20954;-70
2023/06/26 05:27:58;;;;;;;4.75;2.87;;;23.30;48.40;;;;;;2313581;55;21023;-69
2023/06/26 05:30:26;;;;;;;4.97;3.20;;;23.40;48.50;;;;;;2554183;54;20988;-69
2023/06/26 05:32:55;;;;;;;4.62;3.20;;;23.40;48.70;;;;;;2313301;55;20960;-70
2023/06/26 05:35:22;;;;;;;4.62;3.00;;;23.50;48.70;;;;;;2313606;55;20952;-70
2023/06/26 05:37:54;;;;;;;4.40;2.65;;;23.50;48.80;;;;;;2553292;54;20940;-70
2023/06/26 05:40:20;;;;;;;3.92;2.58;;;23.60;49.00;;;;;;2521926;54;21068;-71
2023/06/26 05:42:47;;;;;;;5.40;3.00;;;23.70;48.90;;;;;;2313336;55;20995;-72
2023/06/26 05:45:13;;;;;;;4.97;3.17;;;23.80;49.00;;;;;;2553638;54;20995;-69
2023/06/26 05:47:40;;;;;;;5.22;3.08;;;23.80;49.00;;;;;;2313258;55;20982;-70
2023/06/26 05:50:08;;;;;;;4.60;2.70;;;23.90;49.00;;;;;;2313502;55;21440;-72
2023/06/26 05:52:38;;;;;;;4.78;3.15;;;24.00;49.10;;;;;;2313771;55;20972;-70
2023/06/26 05:55:05;;;;;;;5.20;3.40;;;23.90;49.10;;;;;;2553215;54;20987;-72
2023/06/26 05:57:32;;;;;;;4.30;2.87;;;24.10;49.40;;;;;;2553984;54;21035;-71
2023/06/26 05:59:58;;;;;;;5.87;3.08;;;24.20;49.50;;;;;;2313537;55;20968;-69
2023/06/26 06:02:25;;;;;;;4.85;3.15;;;24.30;49.50;;;;;;2553871;54;20999;-70
2023/06/26 06:04:51;;;;;;;5.37;3.50;;;24.40;49.40;;;;;;2313170;55;21388;-70
2023/06/26 06:07:21;;;;;;;6.62;3.87;;;24.50;49.30;;;;;;2551021;54;20958;-69
2023/06/26 06:09:48;;;;;;;6.43;3.60;;;24.60;50.00;;;;;;2280337;56;20946;-70
2023/06/26 06:12:14;;;;;;;8.02;4.00;;;24.70;49.50;;;;;;2542096;54;21772;-70
2023/06/26 06:14:40;;;;;;;5.12;3.55;;;24.80;49.50;;;;;;2313460;55;20940;-70
2023/06/26 06:17:07;;;;;;;5.10;3.53;;;24.90;49.60;;;;;;2553290;54;21319;-71
2023/06/26 06:19:37;;;;;;;5.35;3.87;;;25.00;49.50;;;;;;2553569;54;21042;-71
2023/06/26 06:22:06;;;;;;;4.55;3.10;;;25.10;49.70;;;;;;2553863;54;20927;-70
2023/06/26 06:24:33;;;;;;;4.90;3.25;;;25.20;49.60;;;;;;2554057;54;20960;-68
2023/06/26 06:26:59;;;;;;;5.68;3.17;;;25.30;49.40;;;;;;2290804;55;20976;-68
2023/06/26 06:29:25;;;;;;;6.00;3.75;;;25.40;49.30;;;;;;2532885;54;21653;-70
2023/06/26 06:31:52;;;;;;;4.32;3.08;;;25.60;49.40;;;;;;2543431;54;21483;-68
2023/06/26 06:34:18;;;;;;;4.30;3.15;;;25.70;49.20;;;;;;2553655;54;20972;-69
2023/06/26 06:36:44;;;;;;;5.78;3.83;;;25.80;49.10;;;;;;2313715;55;20943;-68
2023/06/26 06:39:11;;;;;;;5.78;3.40;;;25.90;49.00;;;;;;2313601;55;20976;-68
2023/06/26 06:41:38;;;;;;;4.62;3.17;;;26.00;49.00;;;;;;2291761;55;21097;-69
2023/06/26 06:44:05;;;;;;;4.80;3.28;;;26.10;48.90;;;;;;2553897;54;20974;-68
2023/06/26 06:46:33;;;;;;;4.47;3.00;;;26.20;49.00;;;;;;2553218;54;20954;-68
2023/06/26 06:49:00;;;;;;;4.32;3.05;;;26.30;48.90;;;;;;2314289;55;21043;-70
2023/06/26 06:51:26;;;;;;;4.57;3.03;;;26.40;48.70;;;;;;2313459;55;20935;-69
2023/06/26 06:53:53;;;;;;;4.45;2.87;;;26.50;48.70;;;;;;2312121;55;20975;-66
2023/06/26 06:56:19;;;;;;;4.80;3.12;;;26.60;48.60;;;;;;2552785;54;20935;-71
2023/06/26 06:58:46;;;;;;;5.85;3.92;;;26.70;48.60;;;;;;2314056;55;20948;-69
2023/06/26 07:01:13;;;;;;;4.47;3.17;;;26.80;48.50;;;;;;2314193;55;21615;-69
2023/06/26 07:03:40;;;;;;;5.05;3.37;;;26.90;48.50;;;;;;2553484;54;20948;-69
2023/06/26 07:06:06;;;;;;;6.07;3.45;;;27.00;48.40;;;;;;2553311;54;21767;-69
2023/06/26 07:08:33;;;;;;;4.87;3.35;;;27.10;48.30;;;;;;2488794;55;21016;-70
2023/06/26 07:11:00;;;;;;;5.10;3.30;;;27.20;48.20;;;;;;2505810;55;21832;-69
2023/06/26 07:13:28;;;;;;;4.95;3.55;;;27.30;48.20;;;;;;2259191;56;21101;-71
2023/06/26 07:15:55;;;;;;;4.65;3.40;;;27.40;48.00;;;;;;2281793;56;21968;-68
2023/06/26 07:18:21;;;;;;;4.45;3.33;;;27.50;47.90;;;;;;2281780;56;21932;-68
2023/06/26 07:20:50;;;;;;;6.57;4.10;;;27.60;47.80;;;;;;2283327;55;21050;-69
2023/06/26 07:23:17;;;;;;;5.90;4.00;;;27.70;47.70;;;;;;2279828;54;21046;-69
2023/06/26 07:25:43;;;;;;;5.15;3.65;;;27.80;47.60;;;;;;2281453;56;20946;-70
2023/06/26 07:28:16;;;;;;;4.90;3.53;;;27.90;47.40;;;;;;2541874;54;21016;-70
2023/06/26 07:30:42;;;;;;;5.78;3.95;;;28.00;47.30;;;;;;2308657;55;20956;-69
2023/06/26 07:33:10;;;;;;;4.43;3.20;;;28.10;47.30;;;;;;2547381;54;21749;-68
2023/06/26 07:35:36;;;;;;;5.40;3.80;;;28.20;47.30;;;;;;2516054;55;21427;-70
2023/06/26 07:38:03;;;;;;;5.32;3.72;;;28.30;47.20;;;;;;2515598;55;21009;-69
2023/06/26 07:40:29;;;;;;;6.18;4.25;;;28.40;47.10;;;;;;2282356;55;21006;-69
2023/06/26 07:42:58;;;;;;;4.68;3.15;;;28.50;47.00;;;;;;2514935;55;20965;-69
2023/06/26 07:45:24;;;;;;;4.55;3.28;;;28.60;46.90;;;;;;2515864;55;21025;-69
2023/06/26 07:47:52;;;;;;;4.90;3.53;;;28.70;46.90;;;;;;2282410;55;21014;-69
2023/06/26 07:50:22;;;;;;;4.60;3.40;;;28.80;46.60;;;;;;2282372;55;20974;-68
2023/06/26 07:52:52;;;;;;;4.40;3.25;;;28.90;46.50;;;;;;2516082;55;21042;-70
2023/06/26 07:55:18;;;;;;;5.30;3.45;;;29.00;46.50;;;;;;2515280;55;21847;-70
2023/06/26 07:57:45;;;;;;;4.18;2.97;;;29.10;46.30;;;;;;2282433;55;20970;-71
2023/06/26 08:00:12;;;;;;;4.43;3.05;;;29.20;46.10;;;;;;2283973;55;21058;-70
2023/06/26 08:02:39;;;;;;;4.90;3.20;;;29.30;46.00;;;;;;2514723;55;20934;-70
2023/06/26 08:05:05;;;;;;;4.80;3.00;;;29.40;45.70;;;;;;2283327;55;20979;-68
2023/06/26 08:07:32;;;;;;;4.87;3.30;;;29.50;45.50;;;;;;2512478;54;20935;-70
2023/06/26 08:09:59;;;;;;;4.53;3.10;;;29.60;45.40;;;;;;2528532;54;20959;-69
2023/06/26 08:12:25;;;;;;;5.50;3.20;;;29.60;45.10;;;;;;2275451;55;21029;-73
2023/06/26 08:14:51;;;;;;;5.18;3.58;;;29.80;45.00;;;;;;2492383;54;21002;-69
2023/06/26 08:17:17;;;;;;;4.75;3.00;;;29.80;44.70;;;;;;2522927;54;21397;-70
2023/06/26 08:19:45;;;;;;;6.65;3.25;;;29.90;44.70;;;;;;2297551;55;20948;-70
2023/06/26 08:22:13;;;;;;;5.47;3.25;;;30.00;44.70;;;;;;2292945;55;20948;-70
2023/06/26 08:24:40;;;;;;;4.15;2.67;;;30.00;44.60;;;;;;2515442;55;21434;-68
2023/06/26 08:27:07;;;;;;;4.22;2.85;;;30.10;44.60;;;;;;2281820;55;21086;-70
2023/06/26 08:29:35;;;;;;;6.53;3.28;;;30.10;44.30;;;;;;2515775;55;21053;-69
2023/06/26 08:32:02;;;;;;;4.22;2.83;;;30.20;44.20;;;;;;2260264;56;21068;-69
2023/06/26 08:34:28;;;;;;;5.05;3.40;;;30.30;44.10;;;;;;2528126;54;21027;-69
2023/06/26 08:36:56;;;;;;;4.83;3.40;;;30.30;44.10;;;;;;2253291;56;1885750;-70
2023/06/26 08:39:23;;;;;;;5.10;3.35;;;30.40;43.90;;;;;;2515514;55;21049;-71
2023/06/26 08:41:50;;;;;;;4.78;3.15;;;30.40;43.90;;;;;;2514946;55;21006;-69
2023/06/26 08:44:18;;;;;;;4.53;2.92;;;30.40;44.00;;;;;;2514718;55;20978;-69
2023/06/26 08:46:44;;;;;;;4.85;3.30;;;30.50;43.80;;;;;;2256428;55;21697;-68
2023/06/26 08:49:20;;;;;;;4.53;3.25;;;30.60;43.80;;;;;;2491987;54;21115;-70
2023/06/26 08:52:02;;;;;;;4.72;3.17;;;30.70;43.40;;;;;;2541273;54;21068;-70
2023/06/26 08:54:33;;;;;;;4.15;2.85;;;30.70;43.30;;;;;;2306188;55;21595;-71
2023/06/26 08:57:00;;;;;;;4.05;2.87;;;30.80;43.30;;;;;;2282064;56;20954;-69
2023/06/26 08:59:26;;;;;;;4.40;2.85;;;30.80;43.10;;;;;;2305872;55;20944;-69
2023/06/26 09:01:52;;;;;;;4.30;3.05;;;30.90;43.10;;;;;;2308932;55;20993;-68
2023/06/26 09:04:19;;;;;;;4.72;3.03;;;31.00;43.00;;;;;;2307585;55;20936;-70
2023/06/26 09:06:45;;;;;;;4.03;2.80;;;31.00;42.80;;;;;;2492184;54;21040;-69
2023/06/26 09:09:12;;;;;;;3.78;2.37;;;31.00;42.70;;;;;;2514300;55;21014;-72
2023/06/26 09:11:39;;;;;;;4.60;2.95;;;31.10;42.70;;;;;;2282965;55;20969;-71
2023/06/26 09:14:07;;;;;;;4.00;2.72;;;31.10;42.70;;;;;;2514769;55;21616;-69
2023/06/26 09:16:39;;;;;;;5.40;3.33;;;31.20;42.70;;;;;;2514967;55;20951;-71
2023/06/26 09:19:11;;;;;;;4.93;3.47;;;31.20;42.50;;;;;;2283513;55;20958;-70
2023/06/26 09:21:38;;;;;;;;;;;31.30;42.40;;;;;;2285727;55;21504;-69
2023/06/26 09:24:04;;;;;;;3.85;2.58;;;31.40;43.10;;;;;;2518264;54;20060;-69
2023/06/26 09:26:31;;;;;;;4.68;2.97;;;31.40;42.20;;;;;;2500747;54;21491;-69
2023/06/26 09:28:57;;;;;;;3.75;2.72;;;31.40;42.10;;;;;;2512751;54;20934;-69
2023/06/26 09:31:24;;;;;;;3.80;2.58;;;31.40;42.20;;;;;;2531788;54;20952;-71
2023/06/26 09:34:01;;;;;;;3.80;2.60;;;31.40;42.20;;;;;;2282260;56;21041;-69
2023/06/26 09:36:28;;;;;;;4.90;2.72;;;31.40;42.00;;;;;;2543609;54;20955;-68
2023/06/26 09:38:55;;;;;;;4.25;2.80;;;31.50;42.10;;;;;;2276857;55;21751;-70
2023/06/26 09:41:21;;;;;;;5.05;3.10;;;31.50;42.00;;;;;;2275726;55;21085;-71
2023/06/26 09:43:51;;;;;;;5.15;3.35;;;31.50;41.90;;;;;;2282359;55;21025;-70
2023/06/26 09:46:26;;;;;;;5.03;2.95;;;31.60;41.90;;;;;;2501682;54;21051;-69
2023/06/26 09:49:07;;;;;;;4.62;2.92;;;31.60;42.00;;;;;;2522986;54;20940;-70
2023/06/26 09:51:33;;;;;;;4.57;2.67;;;31.60;41.80;;;;;;2288250;55;20986;-68
2023/06/26 09:54:00;;;;;;;3.72;2.60;;;31.70;42.00;;;;;;2530019;54;20955;-68
2023/06/26 09:56:27;;;;;;;5.28;2.90;;;31.70;41.70;;;;;;2284957;56;21002;-70
2023/06/26 09:58:56;;;;;;;4.22;2.75;;;31.70;41.60;;;;;;2282136;56;20949;-68
2023/06/26 10:01:23;;;;;;;4.57;2.40;;;31.80;41.50;;;;;;2263391;55;20962;-69
2023/06/26 10:03:49;;;;;;;4.30;3.17;;;31.80;41.50;;;;;;2507952;54;20995;-68
2023/06/26 10:06:19;;;;;;;3.92;2.55;;;31.90;41.60;;;;;;2283836;56;21038;-69
2023/06/26 10:08:48;;;;;;;3.80;2.67;;;31.90;41.50;;;;;;2528732;54;21492;-70
2023/06/26 10:11:16;;;;;;;3.53;2.33;;;31.90;41.40;;;;;;2514902;55;20975;-70
2023/06/26 10:13:46;;;;;;;3.70;2.60;;;31.90;41.30;;;;;;2282937;55;21011;-70
2023/06/26 10:16:12;;;;;;;3.83;2.83;;;32.00;41.30;;;;;;2515347;55;21060;-70
2023/06/26 10:18:39;;;;;;;3.70;2.58;;;32.00;41.10;;;;;;2282924;55;21010;-72
2023/06/26 10:21:05;;;;;;;4.00;2.72;;;32.00;41.00;;;;;;2276826;55;20996;-69
2023/06/26 10:23:31;;;;;;;3.97;2.40;;;32.10;41.10;;;;;;2282725;56;20991;-72
2023/06/26 10:25:58;;;;;;;3.90;2.60;;;32.10;41.00;;;;;;2283257;55;20967;-69
2023/06/26 10:28:25;;;;;;;4.10;2.80;;;32.10;41.00;;;;;;2515263;55;20963;-69
2023/06/26 10:30:51;;;;;;;3.70;2.50;;;32.00;40.80;;;;;;2515606;55;20928;-69
2023/06/26 10:33:18;;;;;;;3.78;2.22;;;32.10;40.70;;;;;;2282928;55;21001;-71
2023/06/26 10:35:44;;;;;;;3.92;2.45;;;32.10;40.60;;;;;;2281525;55;21897;-69
2023/06/26 10:38:10;;;;;;;4.00;2.62;;;32.10;40.50;;;;;;2514979;55;21836;-69
2023/06/26 10:40:41;;;;;;;4.20;2.72;;;32.10;40.50;;;;;;2281696;55;21038;-69
2023/06/26 10:43:09;;;;;;;4.23;2.70;;;32.00;40.40;;;;;;2293786;55;20954;-71
2023/06/26 10:45:36;;;;;;;3.37;2.28;;;32.00;40.70;;;;;;2281814;56;21081;-68
2023/06/26 10:48:04;;;;;;;3.85;2.58;;;32.00;40.70;;;;;;2293511;55;21313;-70
2023/06/26 10:50:31;;;;;;;4.53;2.50;;;32.00;40.80;;;;;;2515293;55;21419;-69
2023/06/26 10:53:36;;;;;;;4.10;2.60;;;32.00;40.70;;;;;;2282251;56;20966;-69
2023/06/26 10:56:05;;;;;;;5.35;2.33;;;32.10;40.30;;;;;;2282315;56;21024;-70
2023/06/26 10:58:42;;;;;;;4.65;2.53;;;32.00;40.50;;;;;;2515769;55;20999;-72
2023/06/26 11:01:17;;;;;;;3.42;2.25;;;32.10;40.80;;;;;;2545362;54;20951;-71
2023/06/26 11:03:51;;;;;;;3.37;2.30;;;32.10;40.80;;;;;;2536396;54;20950;-70
2023/06/26 11:06:23;;;;;;;3.28;2.10;;;32.10;40.90;;;;;;2514633;55;20995;-70
2023/06/26 11:08:53;;;;;;;4.82;2.30;;;32.10;40.80;;;;;;2281599;56;21775;-69
2023/06/26 11:11:20;;;;;;;3.65;2.50;;;32.10;40.70;;;;;;2282275;56;20945;-71
2023/06/26 11:13:47;;;;;;;4.95;2.37;;;32.20;40.60;;;;;;2546129;54;20999;-70
2023/06/26 11:16:16;;;;;;;5.85;2.70;;;32.20;40.20;;;;;;2546830;54;20970;-69
2023/06/26 11:18:43;;;;;;;3.70;2.45;;;32.20;40.00;;;;;;2288206;55;21015;-69
2023/06/26 11:21:14;;;;;;;3.50;2.28;;;32.20;40.00;;;;;;2524888;54;20960;-71
2023/06/26 11:23:40;;;;;;;3.45;2.20;;;32.20;40.00;;;;;;2294425;55;21036;-69
2023/06/26 11:26:17;;;;;;;3.60;2.20;;;32.20;39.90;;;;;;2515097;55;20966;-67
2023/06/26 11:28:54;;;;;;;3.10;1.90;;;32.30;39.80;;;;;;2282227;56;20991;-69
2023/06/26 11:31:40;;;;;;;3.20;2.00;;;32.30;39.60;;;;;;2282138;56;21018;-68
2023/06/26 11:34:11;;;;;;;3.75;2.22;;;32.30;39.60;;;;;;2515770;55;20946;-69
2023/06/26 11:36:38;;;;;;;3.50;2.22;;;32.30;39.60;;;;;;2535481;54;20928;-69
2023/06/26 11:39:07;;;;;;;4.28;2.17;;;32.20;39.70;;;;;;2515493;55;20950;-69
2023/06/26 11:41:36;;;;;;;3.63;2.17;;;32.20;39.80;;;;;;2524466;54;21698;-69
2023/06/26 11:44:11;;;;;;;4.40;2.35;;;32.30;39.80;;;;;;2285294;56;20942;-68
2023/06/26 11:46:38;;;;;;;3.55;2.12;;;32.30;39.60;;;;;;2513667;55;21018;-68
2023/06/26 11:49:09;;;;;;;3.70;2.35;;;32.30;39.60;;;;;;2543517;54;20971;-69
2023/06/26 11:51:38;;;;;;;3.15;2.00;;;32.30;39.60;;;;;;2547364;54;20943;-68
2023/06/26 11:54:04;;;;;;;3.47;1.95;;;32.30;39.50;;;;;;2547639;54;21071;-69
2023/06/26 11:56:31;;;;;;;3.25;2.10;;;32.30;39.40;;;;;;2519730;54;21065;-70
2023/06/26 11:59:04;;;;;;;3.33;2.08;;;32.30;39.40;;;;;;2541426;54;20952;-68
2023/06/26 12:01:39;;;;;;;3.15;1.75;;;32.30;39.40;;;;;;2519592;54;22009;-68
2023/06/26 12:04:09;;;;;;;3.47;2.17;;;32.40;39.40;;;;;;2515217;55;21817;-68
2023/06/26 12:06:38;;;;;;;3.37;1.87;;;32.30;39.00;;;;;;2542982;54;20939;-68
2023/06/26 12:09:11;;;;;;;23.65;3.05;;;32.30;39.10;;;;;;2309473;55;20999;-69
2023/06/26 12:11:42;;;;;;;3.20;1.80;;;32.30;39.00;;;;;;2310480;55;20987;-69
2023/06/26 12:14:09;;;;;;;3.33;1.90;;;32.30;39.20;;;;;;2309338;55;20955;-70
2023/06/26 12:16:37;;;;;;;3.65;1.98;;;32.30;39.00;;;;;;2307512;55;20948;-67
2023/06/26 12:19:05;;;;;;;3.05;1.80;;;32.40;38.80;;;;;;2307958;55;21003;-68
2023/06/26 12:22:08;;;;;;;4.03;2.00;;;32.40;38.80;;;;;;2547122;54;20956;-70
2023/06/26 12:24:35;;;;;;;;;;;32.50;38.80;;;;;;2284315;55;20990;-70
2023/06/26 12:27:06;;;;;;;3.22;1.87;;;32.50;38.80;;;;;;2282522;55;20065;-67
2023/06/26 12:29:33;;;;;;;3.00;1.87;;;32.50;38.70;;;;;;2281865;55;20942;-68
2023/06/26 12:31:59;;;;;;;4.05;2.20;;;32.50;38.70;;;;;;2515379;55;21006;-68
2023/06/26 12:34:36;;;;;;;4.57;1.95;;;32.50;38.60;;;;;;2282128;55;21981;-68
2023/06/26 12:37:13;;;;;;;3.87;2.22;;;32.50;38.30;;;;;;2515531;55;20974;-67
2023/06/26 12:41:31;;;;;;;2.85;1.80;;;32.50;38.30;;;;;;2282494;55;20969;-68
2023/06/26 12:43:59;;;;;;;3.22;1.85;;;32.60;38.30;;;;;;2287775;55;20964;-68
2023/06/26 12:46:35;;;;;;;3.15;1.90;;;32.60;38.10;;;;;;2534758;54;22236;-70
2023/06/26 12:49:01;;;;;;;2.97;1.77;;;32.70;37.80;;;;;;2515534;55;20958;-68
2023/06/26 12:51:28;;;;;;;3.08;1.50;;;32.60;37.80;;;;;;2514682;55;21059;-68
2023/06/26 12:53:54;;;;;;;3.40;1.73;;;32.60;37.70;;;;;;2515103;55;20914;-67
2023/06/26 12:56:22;;;;;;;3.03;1.50;;;32.60;37.70;;;;;;2281578;56;20964;-66
2023/06/26 12:58:48;;;;;;;2.85;1.48;;;32.70;37.70;;;;;;2282426;56;20966;-67
2023/06/26 13:01:14;;;;;;;2.87;1.67;;;32.70;37.60;;;;;;2291415;55;21027;-68